Time;durP1;ratioP1;P1;durP2;ratioP2;P2;SDS_P1;SDS_P2;PMS_P1;PMS_P2;Temp;Humidity;BMP_temperature;BMP_pressure;BME280_temperature;BME280_humidity;BME280_pressure;Samples;Min_cycle;Max_cycle;Signal;HPM_P1;HPM_P2
2022/03/07 00:01:27;;;;;;;9.13;3.45;;;1.40;99.90;;;;;;5032872;28;20128;-48
2022/03/07 00:03:54;;;;;;;9.07;2.85;;;1.30;99.90;;;;;;5028224;28;20038;-47
2022/03/07 00:06:20;;;;;;;6.95;2.53;;;1.30;99.90;;;;;;5032154;28;20052;-50
2022/03/07 00:08:45;;;;;;;6.95;2.75;;;1.20;99.90;;;;;;5032641;28;20041;-51
2022/03/07 00:11:12;;;;;;;8.45;2.90;;;1.20;99.90;;;;;;5015114;28;20033;-52
2022/03/07 00:13:37;;;;;;;7.72;2.25;;;1.20;99.90;;;;;;5032811;28;20045;-51
2022/03/07 00:16:03;;;;;;;6.30;2.63;;;1.20;99.90;;;;;;5032942;28;20477;-47
2022/03/07 00:18:30;;;;;;;7.32;2.10;;;1.20;99.90;;;;;;5032535;28;20083;-48
2022/03/07 00:20:55;;;;;;;6.53;2.15;;;1.20;99.90;;;;;;5014630;28;20120;-46
2022/03/07 00:23:21;;;;;;;7.03;2.60;;;1.10;99.90;;;;;;5032609;28;20425;-47
2022/03/07 00:25:47;;;;;;;7.95;2.55;;;1.10;99.90;;;;;;5032676;28;20037;-47
2022/03/07 00:28:16;;;;;;;5.47;2.03;;;1.10;99.90;;;;;;5032486;28;20033;-47
2022/03/07 00:30:42;;;;;;;8.77;2.20;;;1.10;99.90;;;;;;5032327;28;20056;-47
2022/03/07 00:33:08;;;;;;;5.53;2.22;;;1.20;99.90;;;;;;5014529;28;20049;-49
2022/03/07 00:35:34;;;;;;;6.10;2.22;;;1.10;99.90;;;;;;5032595;28;20048;-47
2022/03/07 00:37:59;;;;;;;5.90;2.00;;;1.10;99.90;;;;;;5032386;28;20049;-50
2022/03/07 00:40:25;;;;;;;7.35;2.83;;;1.10;99.90;;;;;;5032216;28;20045;-48
2022/03/07 00:42:51;;;;;;;7.80;2.85;;;1.00;99.90;;;;;;5031931;28;20069;-47
2022/03/07 00:45:17;;;;;;;5.50;2.25;;;1.00;99.90;;;;;;5031968;28;20041;-49
2022/03/07 00:47:43;;;;;;;6.13;2.20;;;1.00;99.90;;;;;;5032454;28;20041;-50
2022/03/07 00:50:10;;;;;;;9.38;2.50;;;1.00;99.90;;;;;;5032071;28;20041;-46
2022/03/07 00:52:35;;;;;;;8.27;2.10;;;0.90;99.90;;;;;;5038225;28;20140;-46
2022/03/07 00:55:01;;;;;;;7.68;2.05;;;1.00;99.90;;;;;;5038577;28;20112;-46
2022/03/07 00:57:27;;;;;;;9.02;2.10;;;1.00;99.90;;;;;;5038985;28;20042;-50
2022/03/07 00:59:52;;;;;;;8.93;2.33;;;1.00;99.90;;;;;;5038961;28;20045;-48
2022/03/07 01:02:18;;;;;;;6.30;2.65;;;1.00;99.90;;;;;;5038767;28;20041;-47
2022/03/07 01:04:44;;;;;;;8.38;2.00;;;0.90;99.90;;;;;;5033287;28;20053;-49
2022/03/07 01:07:09;;;;;;;5.47;2.08;;;0.90;99.90;;;;;;5038747;28;20103;-50
2022/03/07 01:09:35;;;;;;;8.88;2.45;;;0.90;99.90;;;;;;5004520;28;20401;-48
2022/03/07 01:12:01;;;;;;;5.90;2.38;;;0.80;99.90;;;;;;5038857;28;20041;-50
2022/03/07 01:14:27;;;;;;;5.65;2.10;;;0.80;99.90;;;;;;5038785;28;20485;-47
2022/03/07 01:16:52;;;;;;;6.95;2.22;;;0.80;99.90;;;;;;5038488;28;20513;-46
2022/03/07 01:19:19;;;;;;;6.30;2.28;;;0.70;99.90;;;;;;5038821;28;20498;-47
2022/03/07 01:21:45;;;;;;;7.50;2.25;;;0.70;99.90;;;;;;5038472;28;20060;-46
2022/03/07 01:24:11;;;;;;;5.95;1.90;;;0.70;99.90;;;;;;5004347;28;20041;-47
2022/03/07 01:26:38;;;;;;;6.40;2.00;;;0.70;99.90;;;;;;5038256;28;20128;-49
2022/03/07 01:29:05;;;;;;;5.88;2.00;;;0.70;99.90;;;;;;5038484;28;20041;-46
2022/03/07 01:31:30;;;;;;;8.60;2.72;;;0.70;99.90;;;;;;5020836;28;20049;-48
2022/03/07 01:33:56;;;;;;;5.20;1.92;;;0.70;99.90;;;;;;5038667;28;20124;-46
2022/03/07 01:36:22;;;;;;;8.75;2.53;;;0.70;99.90;;;;;;5038344;28;20041;-49
2022/03/07 01:38:49;;;;;;;7.38;2.30;;;0.70;99.90;;;;;;5038383;28;20459;-46
2022/03/07 01:41:14;;;;;;;7.65;2.70;;;0.60;99.90;;;;;;5038227;28;20563;-46
2022/03/07 01:43:40;;;;;;;6.18;1.90;;;0.60;99.90;;;;;;5038239;28;20076;-49
2022/03/07 01:46:08;;;;;;;7.15;2.20;;;0.60;99.90;;;;;;5038598;28;20048;-48
2022/03/07 01:48:35;;;;;;;6.18;2.03;;;0.60;99.90;;;;;;5038155;28;20037;-48
2022/03/07 01:51:01;;;;;;;17.73;3.28;;;0.60;99.90;;;;;;5038480;28;20164;-46
2022/03/07 01:53:27;;;;;;;6.20;2.20;;;0.50;99.90;;;;;;5038279;28;20552;-47
2022/03/07 01:55:54;;;;;;;7.05;2.30;;;0.50;99.90;;;;;;5020163;28;20111;-46
2022/03/07 01:58:20;;;;;;;6.25;2.15;;;0.60;99.90;;;;;;5038393;28;20037;-49
2022/03/07 02:00:47;;;;;;;7.78;2.60;;;0.50;99.90;;;;;;5038047;28;20038;-48
2022/03/07 02:03:13;;;;;;;6.95;2.35;;;0.50;99.90;;;;;;5036211;28;20072;-49
2022/03/07 02:05:45;;;;;;;6.20;2.28;;;0.40;99.90;;;;;;5011643;28;20507;-50
2022/03/07 02:08:11;;;;;;;8.95;2.58;;;0.40;99.90;;;;;;5035067;28;20041;-51
2022/03/07 02:10:37;;;;;;;8.93;2.20;;;0.50;99.90;;;;;;5034865;28;20048;-51
2022/03/07 02:13:13;;;;;;;8.73;2.40;;;0.40;99.90;;;;;;5035179;28;20051;-50
2022/03/07 02:15:39;;;;;;;6.85;2.40;;;0.40;99.90;;;;;;5016950;28;20091;-46
2022/03/07 02:18:05;;;;;;;7.68;2.45;;;0.40;99.90;;;;;;5035107;28;20041;-50
2022/03/07 02:20:31;;;;;;;9.45;2.30;;;0.30;99.90;;;;;;5034635;28;20457;-50
2022/03/07 02:22:57;;;;;;;6.78;2.72;;;0.30;99.90;;;;;;5034708;28;20046;-49
2022/03/07 02:25:22;;;;;;;7.07;2.50;;;0.30;99.90;;;;;;5034893;28;20034;-46
2022/03/07 02:27:48;;;;;;;10.32;2.30;;;0.30;99.90;;;;;;5034742;28;20033;-46
2022/03/07 02:30:14;;;;;;;5.75;2.50;;;0.30;99.90;;;;;;5034558;28;20038;-47
2022/03/07 02:32:43;;;;;;;10.68;3.22;;;0.40;99.90;;;;;;5034504;28;20026;-47
2022/03/07 02:35:13;;;;;;;6.63;2.67;;;0.30;99.90;;;;;;5034496;28;20045;-50
2022/03/07 02:37:40;;;;;;;9.95;2.63;;;0.30;99.90;;;;;;5034699;28;20076;-50
2022/03/07 02:40:06;;;;;;;6.70;2.38;;;0.30;99.90;;;;;;5034632;28;20095;-50
2022/03/07 02:42:31;;;;;;;6.30;2.42;;;0.30;99.90;;;;;;5034260;28;20044;-50
2022/03/07 02:44:57;;;;;;;6.32;2.28;;;0.20;99.90;;;;;;5034226;28;20045;-46
2022/03/07 02:47:23;;;;;;;10.52;4.50;;;0.20;99.90;;;;;;5016525;28;20037;-47
2022/03/07 02:49:50;;;;;;;7.13;2.50;;;0.20;99.90;;;;;;5034379;28;20382;-48
2022/03/07 02:52:16;;;;;;;7.93;2.85;;;0.20;99.90;;;;;;5016676;28;20065;-46
2022/03/07 02:54:41;;;;;;;7.57;2.85;;;0.30;99.90;;;;;;5034297;28;20033;-47
2022/03/07 02:57:08;;;;;;;6.65;3.03;;;0.20;99.90;;;;;;5033955;28;20125;-46
2022/03/07 02:59:34;;;;;;;6.70;2.80;;;0.20;99.90;;;;;;5033925;28;20045;-47
2022/03/07 03:02:00;;;;;;;5.68;2.25;;;0.10;99.90;;;;;;5034167;28;20041;-47
2022/03/07 03:04:25;;;;;;;6.25;2.70;;;0.10;99.90;;;;;;5028265;28;20045;-46
2022/03/07 03:06:51;;;;;;;6.57;2.55;;;0.10;99.90;;;;;;5034111;28;20123;-47
2022/03/07 03:09:17;;;;;;;10.77;3.45;;;0.00;99.90;;;;;;5033957;28;20064;-48
2022/03/07 03:11:42;;;;;;;8.65;2.67;;;0.00;99.90;;;;;;5033673;28;20052;-50
2022/03/07 03:14:08;;;;;;;7.57;2.70;;;-0.10;99.90;;;;;;5033108;28;20129;-47
2022/03/07 03:16:34;;;;;;;9.02;2.63;;;0.00;99.90;;;;;;5033638;28;20045;-46
2022/03/07 03:19:00;;;;;;;8.10;2.85;;;0.00;99.90;;;;;;5033522;28;20047;-47
2022/03/07 03:21:25;;;;;;;6.60;2.55;;;-0.10;99.90;;;;;;5033467;28;20064;-47
2022/03/07 03:23:51;;;;;;;6.07;2.95;;;-0.10;99.90;;;;;;5015662;28;20049;-47
2022/03/07 03:26:17;;;;;;;12.57;3.40;;;-0.10;99.90;;;;;;5033500;28;20116;-47
2022/03/07 03:28:43;;;;;;;8.27;2.78;;;-0.10;99.90;;;;;;5033448;28;20038;-49
2022/03/07 03:31:11;;;;;;;7.07;2.60;;;-0.20;99.90;;;;;;5015866;28;20041;-47
2022/03/07 03:33:38;;;;;;;6.72;2.65;;;-0.20;99.90;;;;;;5033717;28;20468;-51
2022/03/07 03:36:04;;;;;;;10.27;3.03;;;-0.20;99.90;;;;;;5033554;28;20104;-50
2022/03/07 03:38:29;;;;;;;8.73;3.97;;;-0.20;99.90;;;;;;5033464;28;20046;-49
2022/03/07 03:40:55;;;;;;;9.85;4.60;;;-0.10;99.90;;;;;;5033417;28;20559;-52
2022/03/07 03:43:21;;;;;;;11.20;4.38;;;-0.20;99.90;;;;;;5032155;28;20077;-48
2022/03/07 03:45:47;;;;;;;7.82;3.20;;;-0.20;99.90;;;;;;5033445;28;20046;-47
2022/03/07 03:48:13;;;;;;;8.20;3.03;;;-0.20;99.90;;;;;;5031970;28;20359;-48
2022/03/07 03:50:38;;;;;;;6.93;3.00;;;-0.20;99.90;;;;;;5033297;28;20037;-46
2022/03/07 03:53:04;;;;;;;7.15;2.90;;;-0.20;99.90;;;;;;5032907;28;20033;-48
2022/03/07 03:55:30;;;;;;;5.60;2.22;;;-0.30;99.90;;;;;;5033083;28;20163;-46
2022/03/07 03:57:56;;;;;;;6.72;2.90;;;-0.30;99.90;;;;;;5033214;28;20033;-50
2022/03/07 04:00:23;;;;;;;8.18;2.38;;;-0.20;99.90;;;;;;5015061;28;20156;-48
2022/03/07 04:02:50;;;;;;;6.72;2.55;;;-0.20;99.90;;;;;;5014975;28;20497;-46
2022/03/07 04:05:16;;;;;;;7.10;2.50;;;-0.20;99.90;;;;;;5009972;28;20383;-51
2022/03/07 04:07:43;;;;;;;9.40;2.55;;;-0.20;99.90;;;;;;5032618;28;20035;-53
2022/03/07 04:10:09;;;;;;;5.32;2.25;;;-0.30;99.90;;;;;;5032494;28;20131;-48
2022/03/07 04:12:35;;;;;;;7.10;2.78;;;-0.30;99.90;;;;;;5032834;28;20045;-50
2022/03/07 04:15:01;;;;;;;6.95;2.55;;;-0.30;99.90;;;;;;5032719;28;20037;-48
2022/03/07 04:17:27;;;;;;;7.63;2.30;;;-0.20;99.90;;;;;;5032553;28;20056;-49
2022/03/07 04:19:53;;;;;;;7.25;2.63;;;-0.20;99.90;;;;;;5032632;28;20498;-47
2022/03/07 04:22:19;;;;;;;6.38;2.88;;;-0.20;99.90;;;;;;5032726;28;20115;-48
2022/03/07 04:24:44;;;;;;;6.93;2.67;;;-0.30;99.90;;;;;;5032627;28;20095;-50
2022/03/07 04:27:10;;;;;;;7.63;2.50;;;-0.20;99.90;;;;;;5031764;28;20045;-46
2022/03/07 04:29:36;;;;;;;8.38;2.53;;;-0.30;99.90;;;;;;5032635;28;20116;-47
2022/03/07 04:32:02;;;;;;;6.75;2.50;;;-0.40;99.90;;;;;;5014583;28;20042;-47
2022/03/07 04:34:28;;;;;;;7.43;2.92;;;-0.40;99.90;;;;;;5032321;28;20064;-46
2022/03/07 04:36:53;;;;;;;7.93;2.30;;;-0.40;99.90;;;;;;5032308;28;20477;-47
2022/03/07 04:39:19;;;;;;;5.45;2.83;;;-0.40;99.90;;;;;;5032207;28;20045;-47
2022/03/07 04:41:45;;;;;;;9.95;3.03;;;-0.30;99.90;;;;;;5032261;28;20049;-46
2022/03/07 04:44:11;;;;;;;8.88;2.80;;;-0.30;99.90;;;;;;5032366;28;20095;-50
2022/03/07 04:46:38;;;;;;;9.85;2.50;;;-0.40;99.90;;;;;;5032141;28;20058;-48
2022/03/07 04:49:04;;;;;;;8.45;2.88;;;-0.40;99.90;;;;;;5032067;28;20041;-49
2022/03/07 04:51:29;;;;;;;8.15;2.75;;;-0.30;99.90;;;;;;5014306;28;20045;-50
2022/03/07 04:53:55;;;;;;;5.57;2.40;;;-0.40;99.90;;;;;;5032311;28;20132;-53
2022/03/07 04:56:21;;;;;;;6.60;2.70;;;-0.30;99.90;;;;;;5031009;28;20125;-48
2022/03/07 04:58:46;;;;;;;6.60;2.80;;;-0.30;99.90;;;;;;5032179;28;20053;-50
2022/03/07 05:01:14;;;;;;;6.85;3.35;;;-0.30;99.90;;;;;;5032287;28;20049;-49
2022/03/07 05:03:40;;;;;;;8.10;3.30;;;-0.40;99.90;;;;;;5029391;28;20046;-51
2022/03/07 05:06:08;;;;;;;7.55;2.80;;;-0.30;99.90;;;;;;5011906;28;20049;-48
2022/03/07 05:08:34;;;;;;;8.13;3.08;;;-0.40;99.90;;;;;;5014895;28;20124;-46
2022/03/07 05:11:01;;;;;;;7.55;2.63;;;-0.40;99.90;;;;;;5032220;28;20536;-47
2022/03/07 05:13:26;;;;;;;6.32;2.50;;;-0.40;99.90;;;;;;5032209;28;20045;-47
2022/03/07 05:15:52;;;;;;;7.60;2.72;;;-0.40;99.90;;;;;;5014425;28;20390;-47
2022/03/07 05:18:18;;;;;;;8.70;2.80;;;-0.40;99.90;;;;;;5032102;28;20473;-46
2022/03/07 05:20:43;;;;;;;13.38;5.15;;;-0.40;99.90;;;;;;4997771;28;20529;-46
2022/03/07 05:23:09;;;;;;;7.95;3.55;;;-0.40;99.90;;;;;;5031694;28;20045;-46
2022/03/07 05:25:35;;;;;;;10.93;3.67;;;-0.50;99.90;;;;;;5032129;28;20068;-46
2022/03/07 05:28:01;;;;;;;8.65;3.80;;;-0.40;99.90;;;;;;5014330;28;20069;-48
2022/03/07 05:30:27;;;;;;;9.35;3.80;;;-0.40;99.90;;;;;;5031787;28;20656;-46
2022/03/07 05:32:53;;;;;;;11.50;4.32;;;-0.50;99.90;;;;;;5031862;28;20041;-47
2022/03/07 05:35:21;;;;;;;14.23;4.68;;;-0.50;99.90;;;;;;5031555;28;20117;-50
2022/03/07 05:37:47;;;;;;;17.15;6.72;;;-0.60;99.90;;;;;;5033396;28;20355;-50
2022/03/07 05:40:14;;;;;;;19.20;6.97;;;-0.60;99.90;;;;;;5017716;28;20041;-46
2022/03/07 05:42:40;;;;;;;15.00;5.28;;;-0.60;99.90;;;;;;5035476;28;20040;-46
2022/03/07 05:45:08;;;;;;;18.20;6.63;;;-0.70;99.90;;;;;;5035194;28;20045;-46
2022/03/07 05:47:34;;;;;;;21.35;7.55;;;-0.70;99.90;;;;;;5035903;28;20492;-49
2022/03/07 05:50:00;;;;;;;20.48;7.35;;;-0.60;99.90;;;;;;5017534;28;20041;-47
2022/03/07 05:52:26;;;;;;;19.67;6.10;;;-0.60;99.90;;;;;;5035198;28;20095;-46
2022/03/07 05:54:51;;;;;;;22.58;8.50;;;-0.70;99.90;;;;;;5035410;28;20041;-47
2022/03/07 05:57:17;;;;;;;20.48;6.90;;;-0.60;99.90;;;;;;5017838;28;20041;-49
2022/03/07 05:59:43;;;;;;;12.38;4.63;;;-0.70;99.90;;;;;;5035382;28;20038;-48
2022/03/07 06:02:09;;;;;;;7.97;3.40;;;-0.70;99.90;;;;;;5035427;28;20682;-48
2022/03/07 06:04:34;;;;;;;6.55;2.70;;;-0.80;99.90;;;;;;5029570;28;20397;-48
2022/03/07 06:07:00;;;;;;;7.57;2.83;;;-0.70;99.90;;;;;;5035138;28;20045;-49
2022/03/07 06:09:26;;;;;;;7.20;2.92;;;-0.80;99.90;;;;;;5035188;28;20037;-46
2022/03/07 06:11:51;;;;;;;5.55;2.38;;;-0.80;99.90;;;;;;5035238;28;20121;-46
2022/03/07 06:14:17;;;;;;;6.88;2.80;;;-0.80;99.90;;;;;;5034894;28;20037;-46
2022/03/07 06:16:43;;;;;;;7.50;2.78;;;-0.70;99.90;;;;;;5034691;28;20056;-48
2022/03/07 06:19:09;;;;;;;8.80;2.95;;;-0.80;99.90;;;;;;5034598;28;20041;-46
2022/03/07 06:21:35;;;;;;;8.15;3.10;;;-0.70;99.90;;;;;;5016612;28;20132;-50
2022/03/07 06:24:00;;;;;;;9.75;3.05;;;-0.70;99.90;;;;;;5034740;28;20558;-51
2022/03/07 06:26:26;;;;;;;7.05;3.20;;;-0.80;99.90;;;;;;5034210;28;20041;-49
2022/03/07 06:28:52;;;;;;;8.48;3.45;;;-0.80;99.90;;;;;;5024069;28;20029;-49
2022/03/07 06:31:19;;;;;;;10.93;4.30;;;-0.70;99.90;;;;;;5033565;28;20033;-48
2022/03/07 06:33:44;;;;;;;15.48;3.83;;;-0.70;99.90;;;;;;5032361;28;20038;-50
2022/03/07 06:36:10;;;;;;;9.77;3.40;;;-0.70;99.90;;;;;;5033500;28;20047;-46
2022/03/07 06:38:39;;;;;;;10.13;3.65;;;-0.70;99.90;;;;;;5033673;28;20048;-50
2022/03/07 06:41:05;;;;;;;9.90;3.53;;;-0.70;99.90;;;;;;5033453;28;20076;-47
2022/03/07 06:43:31;;;;;;;8.25;3.60;;;-0.60;99.90;;;;;;5033553;28;20045;-48
2022/03/07 06:45:57;;;;;;;7.60;3.25;;;-0.70;99.90;;;;;;5033776;28;20049;-46
2022/03/07 06:48:22;;;;;;;8.52;3.70;;;-0.70;99.90;;;;;;5033126;28;20033;-47
2022/03/07 06:50:48;;;;;;;8.80;3.85;;;-0.70;99.90;;;;;;5033002;28;20116;-49
2022/03/07 06:53:14;;;;;;;11.38;4.22;;;-0.60;99.90;;;;;;5033635;28;20042;-50
2022/03/07 06:55:40;;;;;;;11.10;4.63;;;-0.50;99.90;;;;;;5032617;28;20536;-47
2022/03/07 06:58:06;;;;;;;7.97;3.80;;;-0.50;99.90;;;;;;5023557;28;20104;-53
2022/03/07 07:00:32;;;;;;;9.88;3.58;;;-0.40;99.90;;;;;;5004680;28;20034;-47
2022/03/07 07:02:58;;;;;;;19.55;3.97;;;-0.40;99.90;;;;;;5021986;28;20038;-47
2022/03/07 07:05:24;;;;;;;9.02;3.83;;;-0.40;99.90;;;;;;5022549;28;20589;-46
2022/03/07 07:07:50;;;;;;;8.15;3.35;;;-0.30;99.90;;;;;;5005790;28;20037;-51
2022/03/07 07:10:18;;;;;;;8.57;3.00;;;-0.30;99.90;;;;;;5021753;28;20128;-51
2022/03/07 07:12:47;;;;;;;6.72;3.03;;;-0.40;99.90;;;;;;5030035;28;20524;-50
2022/03/07 07:15:13;;;;;;;6.70;3.38;;;-0.30;99.90;;;;;;5033063;28;20097;-51
2022/03/07 07:17:39;;;;;;;7.28;3.58;;;-0.20;99.90;;;;;;5033008;28;20060;-51
2022/03/07 07:20:06;;;;;;;9.05;4.47;;;-0.20;99.90;;;;;;5032681;28;20154;-49
2022/03/07 07:22:33;;;;;;;10.80;4.32;;;-0.10;99.90;;;;;;5032750;28;20450;-52
2022/03/07 07:25:00;;;;;;;11.15;3.88;;;0.00;99.90;;;;;;5031419;28;20080;-53
2022/03/07 07:27:26;;;;;;;10.23;4.80;;;-0.10;99.90;;;;;;5032729;28;20389;-53
2022/03/07 07:29:52;;;;;;;10.50;5.85;;;0.10;99.90;;;;;;5032549;28;20045;-49
2022/03/07 07:32:17;;;;;;;11.95;5.32;;;0.10;99.90;;;;;;5014668;28;20037;-49
2022/03/07 07:34:43;;;;;;;13.88;5.35;;;0.20;99.90;;;;;;5031266;28;20068;-49
2022/03/07 07:37:09;;;;;;;11.52;4.88;;;0.30;99.90;;;;;;5032224;28;20132;-53
2022/03/07 07:39:35;;;;;;;9.75;4.90;;;0.30;99.90;;;;;;5014040;28;20124;-48
2022/03/07 07:42:01;;;;;;;9.18;4.43;;;0.40;99.90;;;;;;5032104;28;20069;-49
2022/03/07 07:44:27;;;;;;;8.50;4.68;;;0.50;99.90;;;;;;5031945;28;20489;-48
2022/03/07 07:46:54;;;;;;;10.40;4.82;;;0.40;99.90;;;;;;5032200;28;20046;-48
2022/03/07 07:49:21;;;;;;;12.70;4.10;;;0.60;99.90;;;;;;5032511;28;20088;-46
2022/03/07 07:51:47;;;;;;;13.00;4.20;;;0.70;99.90;;;;;;5032411;28;20385;-48
2022/03/07 07:54:13;;;;;;;8.70;4.07;;;0.70;99.90;;;;;;5032065;28;20037;-47
2022/03/07 07:56:39;;;;;;;8.43;3.72;;;0.80;99.90;;;;;;5031892;28;20124;-51
2022/03/07 07:59:04;;;;;;;9.95;3.83;;;0.90;99.90;;;;;;5031549;28;20048;-49
2022/03/07 08:01:30;;;;;;;10.77;3.83;;;1.00;99.90;;;;;;5031798;28;20053;-51
2022/03/07 08:03:56;;;;;;;9.82;3.75;;;1.00;99.90;;;;;;5031644;28;20044;-47
2022/03/07 08:06:23;;;;;;;12.88;4.93;;;1.20;99.90;;;;;;5012677;28;20099;-48
2022/03/07 08:08:48;;;;;;;8.40;3.47;;;1.20;99.90;;;;;;5012238;28;20045;-49
2022/03/07 08:11:14;;;;;;;7.47;3.90;;;1.30;99.90;;;;;;5011949;28;20046;-47
2022/03/07 08:13:40;;;;;;;11.10;3.45;;;1.40;99.90;;;;;;4994138;28;20045;-45
2022/03/07 08:16:05;;;;;;;9.90;3.35;;;1.50;99.90;;;;;;5011942;28;20129;-48
2022/03/07 08:18:31;;;;;;;9.57;3.05;;;1.60;99.90;;;;;;5011590;28;20044;-47
2022/03/07 08:20:59;;;;;;;8.60;3.17;;;1.70;99.90;;;;;;5011978;28;20061;-46
2022/03/07 08:23:26;;;;;;;7.78;3.25;;;1.80;99.90;;;;;;5010567;28;20057;-46
2022/03/07 08:25:52;;;;;;;6.43;2.80;;;1.90;99.90;;;;;;4994531;28;20052;-47
2022/03/07 08:28:18;;;;;;;9.18;4.00;;;2.00;99.90;;;;;;5011921;28;20120;-45
2022/03/07 08:30:44;;;;;;;9.57;3.10;;;2.00;99.90;;;;;;5011765;28;20045;-48
2022/03/07 08:33:10;;;;;;;10.45;3.20;;;2.10;99.90;;;;;;5011915;28;20041;-49
2022/03/07 08:35:35;;;;;;;8.27;3.65;;;2.30;99.90;;;;;;5011460;28;20380;-50
2022/03/07 08:38:01;;;;;;;11.35;4.35;;;2.30;99.90;;;;;;5011620;28;20124;-50
2022/03/07 08:40:27;;;;;;;11.35;3.63;;;2.40;99.90;;;;;;5011779;28;20474;-47
2022/03/07 08:42:53;;;;;;;8.20;3.20;;;2.50;99.90;;;;;;5011627;28;20487;-48
2022/03/07 08:45:22;;;;;;;8.38;3.53;;;2.70;99.90;;;;;;4993820;28;20390;-47
2022/03/07 08:47:47;;;;;;;9.68;3.30;;;2.70;99.90;;;;;;5011672;28;20451;-47
2022/03/07 08:50:15;;;;;;;8.30;3.03;;;2.70;99.90;;;;;;5011777;28;20157;-48
2022/03/07 08:52:40;;;;;;;8.60;3.40;;;2.90;99.90;;;;;;5011607;28;20240;-45
2022/03/07 08:55:08;;;;;;;11.30;3.22;;;2.90;99.90;;;;;;5011415;28;20506;-48
2022/03/07 08:57:34;;;;;;;7.90;3.15;;;2.90;99.90;;;;;;4993887;28;20042;-46
2022/03/07 09:00:00;;;;;;;9.95;5.05;;;3.10;99.90;;;;;;5011601;28;20088;-49
2022/03/07 09:02:26;;;;;;;7.18;3.10;;;3.10;99.90;;;;;;5011698;28;20038;-45
2022/03/07 09:04:51;;;;;;;11.13;3.40;;;3.30;99.90;;;;;;5016427;28;20053;-47
2022/03/07 09:07:17;;;;;;;7.50;4.00;;;3.20;99.90;;;;;;5011277;28;20077;-50
2022/03/07 09:09:43;;;;;;;9.50;3.28;;;3.30;99.90;;;;;;4993644;28;20041;-48
2022/03/07 09:12:09;;;;;;;7.03;3.17;;;3.50;99.90;;;;;;5012078;28;20382;-46
2022/03/07 09:14:34;;;;;;;5.75;2.72;;;3.40;99.90;;;;;;5015470;28;20042;-52
2022/03/07 09:17:00;;;;;;;7.28;3.20;;;3.50;99.90;;;;;;5015113;28;20117;-46
2022/03/07 09:19:27;;;;;;;8.18;3.60;;;3.50;99.90;;;;;;5015363;28;20145;-47
2022/03/07 09:21:52;;;;;;;6.30;3.33;;;3.60;99.90;;;;;;4981269;28;20050;-45
2022/03/07 09:24:19;;;;;;;8.23;3.20;;;3.70;99.90;;;;;;5015038;28;20398;-46
2022/03/07 09:26:45;;;;;;;12.30;3.53;;;3.70;99.90;;;;;;5015362;28;20038;-48
2022/03/07 09:29:10;;;;;;;10.75;3.20;;;4.00;99.90;;;;;;5015296;28;20140;-49
2022/03/07 09:31:36;;;;;;;11.50;3.22;;;4.00;99.90;;;;;;4997396;28;20042;-47
2022/03/07 09:34:02;;;;;;;7.30;3.42;;;4.10;99.90;;;;;;5015071;28;20394;-48
2022/03/07 09:36:28;;;;;;;7.13;3.08;;;4.10;99.90;;;;;;4997656;28;20045;-51
2022/03/07 09:38:54;;;;;;;7.30;3.40;;;4.10;99.90;;;;;;5014944;28;20038;-47
2022/03/07 09:41:20;;;;;;;7.97;3.03;;;4.20;99.90;;;;;;5013396;28;20037;-50
2022/03/07 09:43:46;;;;;;;8.32;3.20;;;4.30;99.90;;;;;;5014559;28;20100;-49
2022/03/07 09:46:14;;;;;;;10.00;3.45;;;4.40;99.90;;;;;;5014269;28;20048;-50
2022/03/07 09:48:41;;;;;;;7.55;3.50;;;4.40;99.90;;;;;;5014897;28;20037;-51
2022/03/07 09:51:06;;;;;;;7.25;3.08;;;4.40;99.90;;;;;;5014877;28;20030;-47
2022/03/07 09:53:32;;;;;;;7.70;2.95;;;4.50;99.90;;;;;;5014611;28;20474;-46
2022/03/07 09:55:58;;;;;;;9.75;3.30;;;4.50;99.90;;;;;;4997063;28;20368;-46
2022/03/07 09:58:24;;;;;;;8.18;3.15;;;4.60;99.90;;;;;;5014777;28;20042;-45
2022/03/07 10:00:49;;;;;;;9.23;3.30;;;4.60;99.90;;;;;;5014438;28;20378;-48
2022/03/07 10:03:18;;;;;;;7.40;3.28;;;4.70;99.90;;;;;;5014272;28;20589;-50
2022/03/07 10:05:48;;;;;;;5.65;2.60;;;4.70;99.90;;;;;;5019370;28;20044;-50
2022/03/07 10:08:26;;;;;;;9.82;2.88;;;4.80;99.90;;;;;;5014273;28;20037;-50
2022/03/07 10:10:53;;;;;;;7.45;2.10;;;4.90;99.90;;;;;;5014438;28;20041;-52
2022/03/07 10:13:20;;;;;;;8.98;2.30;;;4.80;99.90;;;;;;5021449;28;20092;-49
2022/03/07 10:16:05;;;;;;;9.10;3.17;;;5.00;99.90;;;;;;5002392;28;20056;-48
2022/03/07 10:18:32;;;;;;;6.82;2.38;;;5.00;99.90;;;;;;5013974;28;20119;-49
2022/03/07 10:21:01;;;;;;;7.95;2.33;;;5.20;99.90;;;;;;5013561;28;20457;-49
2022/03/07 10:23:27;;;;;;;9.02;3.00;;;5.30;99.90;;;;;;5012868;28;20066;-48
2022/03/07 10:26:04;;;;;;;7.47;2.35;;;5.50;99.90;;;;;;5014361;28;20046;-46
2022/03/07 10:28:35;;;;;;;7.32;2.20;;;5.50;99.90;;;;;;5020626;28;20042;-46
2022/03/07 10:31:14;;;;;;;5.85;1.92;;;5.50;99.90;;;;;;5023684;28;20033;-46
2022/03/07 10:33:40;;;;;;;15.88;3.22;;;5.50;99.90;;;;;;5014088;28;20052;-48
2022/03/07 10:36:06;;;;;;;8.38;2.22;;;5.60;99.90;;;;;;5014273;28;20038;-48
2022/03/07 10:38:32;;;;;;;5.22;2.20;;;5.60;99.90;;;;;;5014619;28;20049;-47
2022/03/07 10:40:57;;;;;;;7.28;2.10;;;5.60;99.90;;;;;;5012878;28;20049;-46
2022/03/07 10:43:24;;;;;;;8.02;2.67;;;5.70;99.90;;;;;;5022527;28;20048;-46
2022/03/07 10:45:58;;;;;;;8.77;2.78;;;5.60;99.90;;;;;;5024183;28;20049;-48
2022/03/07 10:48:28;;;;;;;8.02;2.42;;;5.80;99.90;;;;;;5023025;28;20034;-47
2022/03/07 10:50:56;;;;;;;7.43;2.67;;;5.80;99.90;;;;;;5023863;28;20033;-50
2022/03/07 10:53:22;;;;;;;8.77;2.53;;;5.90;99.90;;;;;;5017056;28;20041;-47
2022/03/07 10:56:15;;;;;;;8.07;2.58;;;5.80;99.90;;;;;;5014120;28;20034;-47
2022/03/07 10:58:55;;;;;;;8.77;3.13;;;5.80;99.90;;;;;;5011848;28;20561;-46
2022/03/07 11:01:28;;;;;;;7.63;2.72;;;5.90;99.90;;;;;;5014064;28;20038;-47
2022/03/07 11:03:54;;;;;;;6.65;2.17;;;5.90;99.90;;;;;;5015486;28;20037;-51
2022/03/07 11:06:20;;;;;;;6.53;2.20;;;6.10;99.90;;;;;;5017345;28;20172;-48
2022/03/07 11:08:46;;;;;;;7.30;2.35;;;6.20;99.90;;;;;;5013630;28;20481;-50
2022/03/07 11:11:13;;;;;;;7.93;2.35;;;6.30;99.90;;;;;;5019954;28;20099;-50
2022/03/07 11:13:41;;;;;;;6.72;2.38;;;6.10;99.90;;;;;;5023283;28;20042;-48
2022/03/07 11:16:06;;;;;;;8.90;2.50;;;6.10;99.90;;;;;;5021544;28;20038;-48
2022/03/07 11:18:33;;;;;;;6.00;2.00;;;6.00;99.90;;;;;;5023438;28;20498;-48
2022/03/07 11:21:02;;;;;;;8.57;2.80;;;6.10;99.90;;;;;;5021988;28;20060;-49
2022/03/07 11:23:28;;;;;;;7.28;2.90;;;6.00;99.90;;;;;;5025057;28;20073;-46
2022/03/07 11:25:58;;;;;;;6.35;2.75;;;6.10;99.90;;;;;;5022492;28;20454;-46
2022/03/07 11:28:26;;;;;;;7.43;2.40;;;6.00;99.90;;;;;;5030852;28;20152;-47
2022/03/07 11:30:53;;;;;;;6.38;2.13;;;6.10;99.90;;;;;;5033218;28;20551;-50
2022/03/07 11:33:25;;;;;;;9.60;3.25;;;6.20;99.90;;;;;;5024943;28;20037;-50
2022/03/07 11:35:51;;;;;;;;;;;6.20;99.90;;;;;;5027941;28;20111;-48
2022/03/07 11:38:28;;;;;;;7.10;2.33;;;6.40;99.90;;;;;;5025742;28;19920;-50
2022/03/07 11:41:07;;;;;;;6.70;2.30;;;6.60;99.90;;;;;;5027703;28;20052;-51
2022/03/07 11:43:48;;;;;;;6.00;2.25;;;6.70;99.90;;;;;;5024827;28;20033;-51
2022/03/07 11:46:35;;;;;;;6.68;2.55;;;6.80;99.90;;;;;;5028447;28;20037;-49
2022/03/07 11:49:04;;;;;;;5.68;2.30;;;7.00;99.90;;;;;;5026994;28;20536;-53
2022/03/07 11:51:32;;;;;;;7.28;2.40;;;6.80;99.90;;;;;;4999239;28;20050;-49
2022/03/07 11:53:59;;;;;;;6.10;2.30;;;6.70;99.90;;;;;;4995033;28;20046;-50
2022/03/07 11:56:30;;;;;;;6.18;2.25;;;6.80;99.90;;;;;;5012327;28;20044;-50
2022/03/07 11:58:58;;;;;;;5.75;2.20;;;6.90;99.90;;;;;;5012561;28;20053;-49
2022/03/07 12:01:26;;;;;;;7.18;2.50;;;7.00;99.90;;;;;;5012788;28;20081;-51
2022/03/07 12:03:52;;;;;;;8.15;2.47;;;7.20;99.90;;;;;;5016984;28;20045;-49
2022/03/07 12:06:20;;;;;;;5.00;1.90;;;7.40;99.90;;;;;;5013217;28;20041;-53
2022/03/07 12:08:53;;;;;;;6.63;2.25;;;7.50;99.90;;;;;;5012673;28;20081;-52
2022/03/07 12:11:34;;;;;;;6.43;1.92;;;7.80;99.90;;;;;;5012787;28;20508;-53
2022/03/07 12:14:05;;;;;;;5.60;1.85;;;7.90;99.90;;;;;;5013263;28;20037;-48
2022/03/07 12:16:41;;;;;;;4.37;1.67;;;8.00;99.90;;;;;;5012996;28;20045;-47
2022/03/07 12:19:12;;;;;;;5.75;1.60;;;8.30;99.90;;;;;;5012857;28;20692;-49
2022/03/07 12:21:41;;;;;;;8.30;1.83;;;8.30;99.90;;;;;;5012556;28;20137;-47
2022/03/07 12:24:08;;;;;;;6.40;1.90;;;8.40;99.90;;;;;;5012991;28;20050;-50
2022/03/07 12:26:56;;;;;;;6.05;1.98;;;8.40;99.90;;;;;;5012538;28;20471;-48
2022/03/07 12:29:24;;;;;;;5.72;1.90;;;8.60;99.90;;;;;;4995293;28;20466;-49
2022/03/07 12:31:59;;;;;;;5.55;2.30;;;8.60;99.90;;;;;;5012814;28;20038;-51
2022/03/07 12:34:27;;;;;;;5.13;1.70;;;8.70;99.90;;;;;;5011327;28;20060;-49
2022/03/07 12:37:11;;;;;;;5.90;1.90;;;8.70;99.90;;;;;;5011603;28;20068;-50
2022/03/07 12:39:49;;;;;;;4.45;1.60;;;8.80;99.90;;;;;;5012723;28;20446;-53
2022/03/07 12:42:17;;;;;;;5.45;1.42;;;9.00;99.90;;;;;;5012248;28;20410;-49
2022/03/07 12:44:43;;;;;;;5.03;1.67;;;8.80;99.90;;;;;;5012032;28;20046;-49
2022/03/07 12:47:09;;;;;;;8.13;2.88;;;8.50;99.90;;;;;;5011646;28;20125;-47
2022/03/07 12:49:35;;;;;;;6.63;2.25;;;8.30;99.90;;;;;;5012807;28;20409;-48
2022/03/07 12:52:04;;;;;;;6.22;1.70;;;8.00;99.90;;;;;;5012723;28;20037;-47